Portada
METAR-TAF:

METAR-TAF

Aeropuertos :

Aruba, Aruba

Aeropuerto Internacional Reina Beatrix

latitud: 12-30N, longitud: 070-01W, altitud: 18 m

Observación

El informe se hizo hace 56 minutos, a las 05:00 UTC
Viento 8 kt del este
Temperatura 28°C
Humedad 84%
Presión 1011 hPa
Visibilidad 10 km o más
Escasas nubes a una altura de 1700 ft

METAR: TNCA 170500Z 09008KT 9999 FEW017 28/25 Q1011 NOSIG

Hora: 01:56 (05:56 UTC)

Pronóstico

El informe se hizo hace 7 horas y 56 minutos, a las 22:00 UTC
Pronóstico válido del 17 a las 00 UTC al 17 a las 24 UTC
Viento 15 kt del este-noreste
Visibilidad 10 km o más
Nubes dispersas a una altura de 2000 ft
Probabilidad 30% :
Temporalmente
del 17 a las 06 UTC al 17 a las 16 UTC
Visibilidad: 7000 m
Cielo nuboso a una altura de 1500 ft
chaparrones de lluvia

TAF: TNCA 162200Z 1700/1724 07015KT 9999 SCT020 PROB30 TEMPO 1706/1716 7000 SHRA BKN015

Observaciones y pronósticos meteorológicos de más de 4000 aeropuertos (mensajes METAR y TAF).

Los puntos amarillos y rojos representan las estaciones disponibles.

Ponga el ratón en el punto deseado para ver el nombre de la estación.

Haga clic para ver las observaciones y los pronósticos meteorológicos.

Para cambiar el mapa : haga clic en los botones verdes con una cruz de color negro para hacer un zoom, en el botón verde con un guión para alejar o en las flechas verdes para mapas adyacentes.


METAR-TAF: